sensor_id;sensor_type;location;lat;lon;timestamp;temperature;humidity
44900;DHT22;30628;51.188;6.770;2023-09-08T00:02:28;21.30;99.90
44900;DHT22;30628;51.188;6.770;2023-09-08T00:04:54;21.30;99.90
44900;DHT22;30628;51.188;6.770;2023-09-08T00:07:20;21.30;99.90
44900;DHT22;30628;51.188;6.770;2023-09-08T00:09:46;21.30;99.90
44900;DHT22;30628;51.188;6.770;2023-09-08T00:12:12;21.20;99.90
44900;DHT22;30628;51.188;6.770;2023-09-08T00:14:38;21.20;99.90
44900;DHT22;30628;51.188;6.770;2023-09-08T00:17:04;21.20;99.90
44900;DHT22;30628;51.188;6.770;2023-09-08T00:19:29;21.10;99.90
44900;DHT22;30628;51.188;6.770;2023-09-08T00:21:56;21.00;99.90
44900;DHT22;30628;51.188;6.770;2023-09-08T00:24:22;21.00;99.90
44900;DHT22;30628;51.188;6.770;2023-09-08T00:26:48;20.90;99.90
44900;DHT22;30628;51.188;6.770;2023-09-08T00:29:13;20.90;99.90
44900;DHT22;30628;51.188;6.770;2023-09-08T00:31:39;20.80;99.90
44900;DHT22;30628;51.188;6.770;2023-09-08T00:34:05;20.90;99.90
44900;DHT22;30628;51.188;6.770;2023-09-08T00:36:31;20.80;99.90
44900;DHT22;30628;51.188;6.770;2023-09-08T00:38:57;20.80;99.90
44900;DHT22;30628;51.188;6.770;2023-09-08T00:41:23;20.80;99.90
44900;DHT22;30628;51.188;6.770;2023-09-08T00:43:49;20.80;99.90
44900;DHT22;30628;51.188;6.770;2023-09-08T00:46:15;20.80;99.90
44900;DHT22;30628;51.188;6.770;2023-09-08T00:48:41;20.70;99.90
44900;DHT22;30628;51.188;6.770;2023-09-08T00:51:08;20.60;99.90
44900;DHT22;30628;51.188;6.770;2023-09-08T00:53:35;20.60;99.90
44900;DHT22;30628;51.188;6.770;2023-09-08T00:56:02;20.60;99.90
44900;DHT22;30628;51.188;6.770;2023-09-08T00:58:28;20.60;99.90
44900;DHT22;30628;51.188;6.770;2023-09-08T01:00:54;20.50;99.90
44900;DHT22;30628;51.188;6.770;2023-09-08T01:03:23;20.50;99.90
44900;DHT22;30628;51.188;6.770;2023-09-08T01:05:49;20.50;99.90
44900;DHT22;30628;51.188;6.770;2023-09-08T01:08:15;20.60;99.90
44900;DHT22;30628;51.188;6.770;2023-09-08T01:10:41;20.60;99.90
44900;DHT22;30628;51.188;6.770;2023-09-08T01:13:07;20.60;99.90
44900;DHT22;30628;51.188;6.770;2023-09-08T01:15:33;20.60;99.90
44900;DHT22;30628;51.188;6.770;2023-09-08T01:17:59;20.60;99.90
44900;DHT22;30628;51.188;6.770;2023-09-08T01:20:30;20.60;99.90
44900;DHT22;30628;51.188;6.770;2023-09-08T01:25:25;20.70;99.90
44900;DHT22;30628;51.188;6.770;2023-09-08T01:27:57;20.80;99.90
44900;DHT22;30628;51.188;6.770;2023-09-08T01:30:25;20.80;99.90
44900;DHT22;30628;51.188;6.770;2023-09-08T01:32:53;20.80;99.90
44900;DHT22;30628;51.188;6.770;2023-09-08T01:35:19;20.70;99.90
44900;DHT22;30628;51.188;6.770;2023-09-08T01:37:46;20.70;99.90
44900;DHT22;30628;51.188;6.770;2023-09-08T01:40:12;20.80;99.90
44900;DHT22;30628;51.188;6.770;2023-09-08T01:42:38;20.80;99.90
44900;DHT22;30628;51.188;6.770;2023-09-08T01:45:05;20.70;99.90
44900;DHT22;30628;51.188;6.770;2023-09-08T01:47:31;20.60;99.90
44900;DHT22;30628;51.188;6.770;2023-09-08T01:49:56;20.40;99.90
44900;DHT22;30628;51.188;6.770;2023-09-08T01:52:22;20.40;99.90
44900;DHT22;30628;51.188;6.770;2023-09-08T01:54:48;20.30;99.90
44900;DHT22;30628;51.188;6.770;2023-09-08T01:57:13;20.20;99.90
44900;DHT22;30628;51.188;6.770;2023-09-08T01:59:39;20.20;99.90
44900;DHT22;30628;51.188;6.770;2023-09-08T02:02:05;20.20;99.90
44900;DHT22;30628;51.188;6.770;2023-09-08T02:04:31;20.20;99.90
44900;DHT22;30628;51.188;6.770;2023-09-08T02:06:57;20.30;99.90
44900;DHT22;30628;51.188;6.770;2023-09-08T02:09:36;20.20;99.90
44900;DHT22;30628;51.188;6.770;2023-09-08T02:12:03;20.20;99.90
44900;DHT22;30628;51.188;6.770;2023-09-08T02:14:29;20.20;99.90
44900;DHT22;30628;51.188;6.770;2023-09-08T02:16:55;20.20;99.90
44900;DHT22;30628;51.188;6.770;2023-09-08T02:19:29;20.10;99.90
44900;DHT22;30628;51.188;6.770;2023-09-08T02:21:55;20.10;99.90
44900;DHT22;30628;51.188;6.770;2023-09-08T02:24:20;20.00;99.90
44900;DHT22;30628;51.188;6.770;2023-09-08T02:26:46;20.00;99.90
44900;DHT22;30628;51.188;6.770;2023-09-08T02:29:12;20.10;99.90
44900;DHT22;30628;51.188;6.770;2023-09-08T02:31:37;20.10;99.90
44900;DHT22;30628;51.188;6.770;2023-09-08T02:34:03;20.10;99.90
44900;DHT22;30628;51.188;6.770;2023-09-08T02:36:29;20.00;99.90
44900;DHT22;30628;51.188;6.770;2023-09-08T02:38:55;20.00;99.90
44900;DHT22;30628;51.188;6.770;2023-09-08T02:41:31;20.00;99.90
44900;DHT22;30628;51.188;6.770;2023-09-08T02:43:56;20.00;99.90
44900;DHT22;30628;51.188;6.770;2023-09-08T02:46:22;20.00;99.90
44900;DHT22;30628;51.188;6.770;2023-09-08T02:48:48;20.00;99.90
44900;DHT22;30628;51.188;6.770;2023-09-08T02:51:13;20.00;99.90
44900;DHT22;30628;51.188;6.770;2023-09-08T02:53:39;20.00;99.90
44900;DHT22;30628;51.188;6.770;2023-09-08T02:56:05;20.10;99.90
44900;DHT22;30628;51.188;6.770;2023-09-08T02:58:35;20.20;99.90
44900;DHT22;30628;51.188;6.770;2023-09-08T03:01:14;20.20;99.90
44900;DHT22;30628;51.188;6.770;2023-09-08T03:03:41;20.20;99.90
44900;DHT22;30628;51.188;6.770;2023-09-08T03:06:08;20.20;99.90
44900;DHT22;30628;51.188;6.770;2023-09-08T03:08:33;20.20;99.90
44900;DHT22;30628;51.188;6.770;2023-09-08T03:10:59;20.10;99.90
44900;DHT22;30628;51.188;6.770;2023-09-08T03:13:25;20.10;99.90
44900;DHT22;30628;51.188;6.770;2023-09-08T03:15:52;20.10;99.90
44900;DHT22;30628;51.188;6.770;2023-09-08T03:18:17;20.10;99.90
44900;DHT22;30628;51.188;6.770;2023-09-08T03:20:44;20.00;99.90
44900;DHT22;30628;51.188;6.770;2023-09-08T03:23:13;20.00;99.90
44900;DHT22;30628;51.188;6.770;2023-09-08T03:25:38;19.90;99.90
44900;DHT22;30628;51.188;6.770;2023-09-08T03:28:04;19.90;99.90
44900;DHT22;30628;51.188;6.770;2023-09-08T03:30:29;19.90;99.90
44900;DHT22;30628;51.188;6.770;2023-09-08T03:32:55;19.90;99.90
44900;DHT22;30628;51.188;6.770;2023-09-08T03:35:24;19.80;99.90
44900;DHT22;30628;51.188;6.770;2023-09-08T03:37:49;19.80;99.90
44900;DHT22;30628;51.188;6.770;2023-09-08T03:40:15;19.80;99.90
44900;DHT22;30628;51.188;6.770;2023-09-08T03:42:41;19.70;99.90
44900;DHT22;30628;51.188;6.770;2023-09-08T03:45:08;19.70;99.90
44900;DHT22;30628;51.188;6.770;2023-09-08T03:47:33;19.70;99.90
44900;DHT22;30628;51.188;6.770;2023-09-08T03:49:59;19.70;99.90
44900;DHT22;30628;51.188;6.770;2023-09-08T03:52:25;19.70;99.90
44900;DHT22;30628;51.188;6.770;2023-09-08T03:54:59;19.70;99.90
44900;DHT22;30628;51.188;6.770;2023-09-08T03:57:25;19.70;99.90
44900;DHT22;30628;51.188;6.770;2023-09-08T03:59:51;19.70;99.90
44900;DHT22;30628;51.188;6.770;2023-09-08T04:02:25;19.70;99.90
44900;DHT22;30628;51.188;6.770;2023-09-08T04:04:53;19.60;99.90
44900;DHT22;30628;51.188;6.770;2023-09-08T04:07:19;19.60;99.90
44900;DHT22;30628;51.188;6.770;2023-09-08T04:09:45;19.60;99.90
44900;DHT22;30628;51.188;6.770;2023-09-08T04:12:10;19.60;99.90
44900;DHT22;30628;51.188;6.770;2023-09-08T04:14:36;19.50;99.90
44900;DHT22;30628;51.188;6.770;2023-09-08T04:17:02;19.60;99.90
44900;DHT22;30628;51.188;6.770;2023-09-08T04:19:28;19.60;99.90
44900;DHT22;30628;51.188;6.770;2023-09-08T04:21:53;19.50;99.90
44900;DHT22;30628;51.188;6.770;2023-09-08T04:24:19;19.50;99.90
44900;DHT22;30628;51.188;6.770;2023-09-08T04:26:45;19.50;99.90
44900;DHT22;30628;51.188;6.770;2023-09-08T04:29:11;19.50;99.90
44900;DHT22;30628;51.188;6.770;2023-09-08T04:31:36;19.50;99.90
44900;DHT22;30628;51.188;6.770;2023-09-08T04:34:02;19.50;99.90
44900;DHT22;30628;51.188;6.770;2023-09-08T04:36:28;19.50;99.90
44900;DHT22;30628;51.188;6.770;2023-09-08T04:38:56;19.40;99.90
44900;DHT22;30628;51.188;6.770;2023-09-08T04:41:22;19.40;99.90
44900;DHT22;30628;51.188;6.770;2023-09-08T04:43:47;19.40;99.90
44900;DHT22;30628;51.188;6.770;2023-09-08T04:46:13;19.40;99.90
44900;DHT22;30628;51.188;6.770;2023-09-08T04:48:39;19.40;99.90
44900;DHT22;30628;51.188;6.770;2023-09-08T04:51:04;19.40;99.90
44900;DHT22;30628;51.188;6.770;2023-09-08T04:53:30;19.30;99.90
44900;DHT22;30628;51.188;6.770;2023-09-08T04:55:56;19.30;99.90
44900;DHT22;30628;51.188;6.770;2023-09-08T04:58:21;19.30;99.90
44900;DHT22;30628;51.188;6.770;2023-09-08T05:00:47;19.30;99.90
44900;DHT22;30628;51.188;6.770;2023-09-08T05:03:12;19.30;99.90
44900;DHT22;30628;51.188;6.770;2023-09-08T05:05:38;19.30;99.90
44900;DHT22;30628;51.188;6.770;2023-09-08T05:08:04;19.30;99.90
44900;DHT22;30628;51.188;6.770;2023-09-08T05:10:30;19.30;99.90
44900;DHT22;30628;51.188;6.770;2023-09-08T05:12:56;19.30;99.90
44900;DHT22;30628;51.188;6.770;2023-09-08T05:15:21;19.30;99.90
44900;DHT22;30628;51.188;6.770;2023-09-08T05:17:47;19.30;99.90
44900;DHT22;30628;51.188;6.770;2023-09-08T05:20:13;19.30;99.90
44900;DHT22;30628;51.188;6.770;2023-09-08T05:22:39;19.30;99.90
44900;DHT22;30628;51.188;6.770;2023-09-08T05:25:05;19.30;99.90
44900;DHT22;30628;51.188;6.770;2023-09-08T05:27:31;19.30;99.90
44900;DHT22;30628;51.188;6.770;2023-09-08T05:29:57;19.20;99.90
44900;DHT22;30628;51.188;6.770;2023-09-08T05:32:23;19.20;99.90
44900;DHT22;30628;51.188;6.770;2023-09-08T05:34:49;19.30;99.90
44900;DHT22;30628;51.188;6.770;2023-09-08T05:37:15;19.20;99.90
44900;DHT22;30628;51.188;6.770;2023-09-08T05:39:40;19.20;99.90
44900;DHT22;30628;51.188;6.770;2023-09-08T05:42:06;19.30;99.90
44900;DHT22;30628;51.188;6.770;2023-09-08T05:44:32;19.30;99.90
44900;DHT22;30628;51.188;6.770;2023-09-08T05:46:57;19.30;99.90
44900;DHT22;30628;51.188;6.770;2023-09-08T05:49:23;19.40;99.90
44900;DHT22;30628;51.188;6.770;2023-09-08T05:51:49;19.40;99.90
44900;DHT22;30628;51.188;6.770;2023-09-08T05:54:15;19.50;99.90
44900;DHT22;30628;51.188;6.770;2023-09-08T05:56:40;19.60;99.90
44900;DHT22;30628;51.188;6.770;2023-09-08T05:59:06;19.70;99.90
44900;DHT22;30628;51.188;6.770;2023-09-08T06:01:32;19.70;99.90
44900;DHT22;30628;51.188;6.770;2023-09-08T06:03:58;19.70;99.90
44900;DHT22;30628;51.188;6.770;2023-09-08T06:06:24;19.70;99.90
44900;DHT22;30628;51.188;6.770;2023-09-08T06:08:50;19.80;99.90
44900;DHT22;30628;51.188;6.770;2023-09-08T06:11:16;20.00;99.90
44900;DHT22;30628;51.188;6.770;2023-09-08T06:13:43;19.90;99.90
44900;DHT22;30628;51.188;6.770;2023-09-08T06:16:08;20.00;99.90
44900;DHT22;30628;51.188;6.770;2023-09-08T06:18:34;20.00;99.90
44900;DHT22;30628;51.188;6.770;2023-09-08T06:21:06;20.10;99.90
44900;DHT22;30628;51.188;6.770;2023-09-08T06:23:33;20.10;99.90
44900;DHT22;30628;51.188;6.770;2023-09-08T06:25:58;20.30;99.90
44900;DHT22;30628;51.188;6.770;2023-09-08T06:28:26;20.30;99.90
44900;DHT22;30628;51.188;6.770;2023-09-08T06:30:52;20.40;99.90
44900;DHT22;30628;51.188;6.770;2023-09-08T06:33:17;20.50;99.90
44900;DHT22;30628;51.188;6.770;2023-09-08T06:35:43;20.80;99.90
44900;DHT22;30628;51.188;6.770;2023-09-08T06:38:09;21.10;99.90
44900;DHT22;30628;51.188;6.770;2023-09-08T06:40:35;21.30;99.90
44900;DHT22;30628;51.188;6.770;2023-09-08T06:43:01;21.50;99.90
44900;DHT22;30628;51.188;6.770;2023-09-08T06:45:26;21.80;99.90
44900;DHT22;30628;51.188;6.770;2023-09-08T06:47:52;22.00;99.90
44900;DHT22;30628;51.188;6.770;2023-09-08T06:50:21;22.10;99.90
44900;DHT22;30628;51.188;6.770;2023-09-08T06:52:47;22.20;99.90
44900;DHT22;30628;51.188;6.770;2023-09-08T06:55:13;22.40;99.90
44900;DHT22;30628;51.188;6.770;2023-09-08T06:57:44;22.60;99.90
44900;DHT22;30628;51.188;6.770;2023-09-08T07:00:10;22.70;99.90
44900;DHT22;30628;51.188;6.770;2023-09-08T07:02:39;22.80;99.90
44900;DHT22;30628;51.188;6.770;2023-09-08T07:05:05;22.90;99.90
44900;DHT22;30628;51.188;6.770;2023-09-08T07:07:34;23.10;99.90
44900;DHT22;30628;51.188;6.770;2023-09-08T07:10:00;23.20;99.90
44900;DHT22;30628;51.188;6.770;2023-09-08T07:12:26;23.30;99.90
44900;DHT22;30628;51.188;6.770;2023-09-08T07:14:51;23.50;99.90
44900;DHT22;30628;51.188;6.770;2023-09-08T07:17:17;23.60;99.90
44900;DHT22;30628;51.188;6.770;2023-09-08T07:19:42;23.70;99.90
44900;DHT22;30628;51.188;6.770;2023-09-08T07:22:08;23.70;99.90
44900;DHT22;30628;51.188;6.770;2023-09-08T07:24:33;23.90;99.90
44900;DHT22;30628;51.188;6.770;2023-09-08T07:26:59;23.90;99.90
44900;DHT22;30628;51.188;6.770;2023-09-08T07:29:26;24.00;99.90
44900;DHT22;30628;51.188;6.770;2023-09-08T07:31:51;24.10;99.90
44900;DHT22;30628;51.188;6.770;2023-09-08T07:34:17;24.10;99.90
44900;DHT22;30628;51.188;6.770;2023-09-08T07:36:43;24.10;99.90
44900;DHT22;30628;51.188;6.770;2023-09-08T07:39:08;24.10;99.90
44900;DHT22;30628;51.188;6.770;2023-09-08T07:41:34;24.10;99.90
44900;DHT22;30628;51.188;6.770;2023-09-08T07:44:00;24.10;99.90
44900;DHT22;30628;51.188;6.770;2023-09-08T07:46:26;24.10;99.90
44900;DHT22;30628;51.188;6.770;2023-09-08T07:48:52;24.10;99.90
44900;DHT22;30628;51.188;6.770;2023-09-08T07:51:17;24.10;99.90
44900;DHT22;30628;51.188;6.770;2023-09-08T07:53:43;24.10;99.90
44900;DHT22;30628;51.188;6.770;2023-09-08T07:56:09;24.10;99.90
44900;DHT22;30628;51.188;6.770;2023-09-08T07:58:34;24.20;99.90
44900;DHT22;30628;51.188;6.770;2023-09-08T08:01:00;24.20;99.90
44900;DHT22;30628;51.188;6.770;2023-09-08T08:03:26;24.20;99.90
44900;DHT22;30628;51.188;6.770;2023-09-08T08:05:51;24.20;99.90
44900;DHT22;30628;51.188;6.770;2023-09-08T08:08:17;24.20;99.90
44900;DHT22;30628;51.188;6.770;2023-09-08T08:10:43;24.30;99.90
44900;DHT22;30628;51.188;6.770;2023-09-08T08:13:08;24.30;99.90
44900;DHT22;30628;51.188;6.770;2023-09-08T08:15:36;24.30;99.90
44900;DHT22;30628;51.188;6.770;2023-09-08T08:18:04;24.30;99.90
44900;DHT22;30628;51.188;6.770;2023-09-08T08:20:30;24.40;99.90
44900;DHT22;30628;51.188;6.770;2023-09-08T08:23:03;24.50;99.90
44900;DHT22;30628;51.188;6.770;2023-09-08T08:25:29;24.50;99.90
44900;DHT22;30628;51.188;6.770;2023-09-08T08:27:54;24.60;99.90
44900;DHT22;30628;51.188;6.770;2023-09-08T08:30:22;24.60;99.90
44900;DHT22;30628;51.188;6.770;2023-09-08T08:32:47;24.70;99.90
44900;DHT22;30628;51.188;6.770;2023-09-08T08:35:13;24.80;99.90
44900;DHT22;30628;51.188;6.770;2023-09-08T08:37:40;24.80;99.90
44900;DHT22;30628;51.188;6.770;2023-09-08T08:40:06;24.90;99.90
44900;DHT22;30628;51.188;6.770;2023-09-08T08:42:33;25.00;99.90
44900;DHT22;30628;51.188;6.770;2023-09-08T08:44:59;25.00;99.90
44900;DHT22;30628;51.188;6.770;2023-09-08T08:47:27;25.00;99.90
44900;DHT22;30628;51.188;6.770;2023-09-08T08:49:56;25.10;99.90
44900;DHT22;30628;51.188;6.770;2023-09-08T08:52:24;25.20;99.90
44900;DHT22;30628;51.188;6.770;2023-09-08T08:54:50;25.30;99.90
44900;DHT22;30628;51.188;6.770;2023-09-08T08:57:15;25.30;99.90
44900;DHT22;30628;51.188;6.770;2023-09-08T08:59:41;25.50;99.90
44900;DHT22;30628;51.188;6.770;2023-09-08T09:02:08;25.60;99.90
44900;DHT22;30628;51.188;6.770;2023-09-08T09:04:37;25.70;99.90
44900;DHT22;30628;51.188;6.770;2023-09-08T09:07:04;25.90;99.90
44900;DHT22;30628;51.188;6.770;2023-09-08T09:09:32;25.90;99.90
44900;DHT22;30628;51.188;6.770;2023-09-08T09:11:57;26.10;99.90
44900;DHT22;30628;51.188;6.770;2023-09-08T09:14:23;26.10;99.90
44900;DHT22;30628;51.188;6.770;2023-09-08T09:16:49;26.20;99.90
44900;DHT22;30628;51.188;6.770;2023-09-08T09:19:21;26.30;99.90
44900;DHT22;30628;51.188;6.770;2023-09-08T09:21:51;26.30;99.90
44900;DHT22;30628;51.188;6.770;2023-09-08T09:24:48;26.40;99.90
44900;DHT22;30628;51.188;6.770;2023-09-08T09:27:14;26.50;99.90
44900;DHT22;30628;51.188;6.770;2023-09-08T09:29:50;26.60;99.90
44900;DHT22;30628;51.188;6.770;2023-09-08T09:32:24;26.80;99.90
44900;DHT22;30628;51.188;6.770;2023-09-08T09:34:52;26.80;99.90
44900;DHT22;30628;51.188;6.770;2023-09-08T09:37:22;26.90;99.90
44900;DHT22;30628;51.188;6.770;2023-09-08T09:39:52;27.00;99.90
44900;DHT22;30628;51.188;6.770;2023-09-08T09:42:18;27.10;99.90
44900;DHT22;30628;51.188;6.770;2023-09-08T09:44:47;27.20;99.90
44900;DHT22;30628;51.188;6.770;2023-09-08T09:47:13;27.20;99.90
44900;DHT22;30628;51.188;6.770;2023-09-08T09:49:47;27.40;99.90
44900;DHT22;30628;51.188;6.770;2023-09-08T09:52:14;27.40;99.90
44900;DHT22;30628;51.188;6.770;2023-09-08T09:54:43;27.50;99.90
44900;DHT22;30628;51.188;6.770;2023-09-08T09:57:13;27.60;99.90
44900;DHT22;30628;51.188;6.770;2023-09-08T09:59:42;27.60;99.90
44900;DHT22;30628;51.188;6.770;2023-09-08T10:02:14;27.70;99.90
44900;DHT22;30628;51.188;6.770;2023-09-08T10:04:40;27.70;99.90
44900;DHT22;30628;51.188;6.770;2023-09-08T10:07:07;27.70;99.90
44900;DHT22;30628;51.188;6.770;2023-09-08T10:09:32;27.70;99.90
44900;DHT22;30628;51.188;6.770;2023-09-08T10:12:05;27.70;99.90
44900;DHT22;30628;51.188;6.770;2023-09-08T10:14:40;27.80;99.90
44900;DHT22;30628;51.188;6.770;2023-09-08T10:17:15;27.90;99.90
44900;DHT22;30628;51.188;6.770;2023-09-08T10:19:45;28.00;99.90
44900;DHT22;30628;51.188;6.770;2023-09-08T10:22:20;28.00;99.90
44900;DHT22;30628;51.188;6.770;2023-09-08T10:24:46;28.00;99.90
44900;DHT22;30628;51.188;6.770;2023-09-08T10:27:13;28.10;99.90
44900;DHT22;30628;51.188;6.770;2023-09-08T10:29:40;28.10;99.90
44900;DHT22;30628;51.188;6.770;2023-09-08T10:32:07;28.20;99.90
44900;DHT22;30628;51.188;6.770;2023-09-08T10:34:35;28.10;99.90
44900;DHT22;30628;51.188;6.770;2023-09-08T10:37:01;28.10;99.90
44900;DHT22;30628;51.188;6.770;2023-09-08T10:39:34;28.10;99.90
44900;DHT22;30628;51.188;6.770;2023-09-08T10:47:18;27.90;99.90
44900;DHT22;30628;51.188;6.770;2023-09-08T10:49:46;27.90;99.90
44900;DHT22;30628;51.188;6.770;2023-09-08T10:52:12;27.80;99.90
44900;DHT22;30628;51.188;6.770;2023-09-08T10:54:45;27.80;99.90
44900;DHT22;30628;51.188;6.770;2023-09-08T10:57:14;27.60;99.90
44900;DHT22;30628;51.188;6.770;2023-09-08T10:59:45;27.60;99.90
44900;DHT22;30628;51.188;6.770;2023-09-08T11:02:37;27.60;99.90
44900;DHT22;30628;51.188;6.770;2023-09-08T11:07:33;27.50;99.90
44900;DHT22;30628;51.188;6.770;2023-09-08T11:10:01;27.50;99.90
44900;DHT22;30628;51.188;6.770;2023-09-08T11:12:28;27.40;99.90
44900;DHT22;30628;51.188;6.770;2023-09-08T11:14:54;27.40;99.90
44900;DHT22;30628;51.188;6.770;2023-09-08T11:17:20;27.50;99.90
44900;DHT22;30628;51.188;6.770;2023-09-08T11:19:49;27.40;99.90
44900;DHT22;30628;51.188;6.770;2023-09-08T11:22:16;27.40;99.90
44900;DHT22;30628;51.188;6.770;2023-09-08T11:24:43;27.40;99.90
44900;DHT22;30628;51.188;6.770;2023-09-08T11:27:10;27.00;99.90
44900;DHT22;30628;51.188;6.770;2023-09-08T11:29:36;26.90;99.90
44900;DHT22;30628;51.188;6.770;2023-09-08T11:32:02;26.90;99.90
44900;DHT22;30628;51.188;6.770;2023-09-08T11:34:31;26.80;99.90
44900;DHT22;30628;51.188;6.770;2023-09-08T11:36:57;26.90;99.90
44900;DHT22;30628;51.188;6.770;2023-09-08T11:39:25;26.90;99.90
44900;DHT22;30628;51.188;6.770;2023-09-08T11:41:52;27.00;99.90
44900;DHT22;30628;51.188;6.770;2023-09-08T11:44:18;27.00;99.90
44900;DHT22;30628;51.188;6.770;2023-09-08T11:46:44;27.10;99.90
44900;DHT22;30628;51.188;6.770;2023-09-08T11:49:11;27.10;99.90
44900;DHT22;30628;51.188;6.770;2023-09-08T11:51:36;27.20;99.90
44900;DHT22;30628;51.188;6.770;2023-09-08T11:54:03;27.20;99.90
44900;DHT22;30628;51.188;6.770;2023-09-08T11:56:29;27.20;99.90
44900;DHT22;30628;51.188;6.770;2023-09-08T11:58:55;27.20;99.90
44900;DHT22;30628;51.188;6.770;2023-09-08T12:01:22;27.30;99.90
44900;DHT22;30628;51.188;6.770;2023-09-08T12:03:55;27.30;99.90
44900;DHT22;30628;51.188;6.770;2023-09-08T12:06:25;27.30;99.90
44900;DHT22;30628;51.188;6.770;2023-09-08T12:08:51;27.40;99.90
44900;DHT22;30628;51.188;6.770;2023-09-08T12:11:16;27.40;99.90
44900;DHT22;30628;51.188;6.770;2023-09-08T12:13:42;27.40;99.90
44900;DHT22;30628;51.188;6.770;2023-09-08T12:16:21;27.40;99.90
44900;DHT22;30628;51.188;6.770;2023-09-08T12:18:48;27.50;99.90
44900;DHT22;30628;51.188;6.770;2023-09-08T12:21:15;27.60;99.90
44900;DHT22;30628;51.188;6.770;2023-09-08T12:23:48;27.60;99.90
44900;DHT22;30628;51.188;6.770;2023-09-08T12:26:14;27.60;99.90
44900;DHT22;30628;51.188;6.770;2023-09-08T12:28:42;27.70;99.90
44900;DHT22;30628;51.188;6.770;2023-09-08T12:31:09;27.70;99.90
44900;DHT22;30628;51.188;6.770;2023-09-08T12:33:35;27.70;99.90
44900;DHT22;30628;51.188;6.770;2023-09-08T12:36:13;27.60;99.90
44900;DHT22;30628;51.188;6.770;2023-09-08T12:38:40;27.70;99.90
44900;DHT22;30628;51.188;6.770;2023-09-08T12:41:06;27.80;99.90
44900;DHT22;30628;51.188;6.770;2023-09-08T12:43:32;27.80;99.90
44900;DHT22;30628;51.188;6.770;2023-09-08T12:45:57;27.70;99.90
44900;DHT22;30628;51.188;6.770;2023-09-08T12:48:23;27.70;99.90
44900;DHT22;30628;51.188;6.770;2023-09-08T12:50:50;27.60;99.90
44900;DHT22;30628;51.188;6.770;2023-09-08T12:53:16;27.70;99.90
44900;DHT22;30628;51.188;6.770;2023-09-08T12:55:43;27.80;99.90
44900;DHT22;30628;51.188;6.770;2023-09-08T12:58:09;27.80;99.90
44900;DHT22;30628;51.188;6.770;2023-09-08T13:00:34;27.90;99.90
44900;DHT22;30628;51.188;6.770;2023-09-08T13:03:01;27.90;99.90
44900;DHT22;30628;51.188;6.770;2023-09-08T13:05:27;27.90;99.90
44900;DHT22;30628;51.188;6.770;2023-09-08T13:07:53;27.90;99.90
44900;DHT22;30628;51.188;6.770;2023-09-08T13:10:19;27.90;99.90
44900;DHT22;30628;51.188;6.770;2023-09-08T13:13:01;27.90;99.90
44900;DHT22;30628;51.188;6.770;2023-09-08T13:15:26;27.90;99.90
44900;DHT22;30628;51.188;6.770;2023-09-08T13:17:52;27.90;99.90
44900;DHT22;30628;51.188;6.770;2023-09-08T13:20:17;27.90;99.90
44900;DHT22;30628;51.188;6.770;2023-09-08T13:22:43;27.90;99.90
44900;DHT22;30628;51.188;6.770;2023-09-08T13:25:09;28.00;99.90
44900;DHT22;30628;51.188;6.770;2023-09-08T13:27:35;28.00;99.90
44900;DHT22;30628;51.188;6.770;2023-09-08T13:30:11;27.90;99.90
44900;DHT22;30628;51.188;6.770;2023-09-08T13:32:38;27.90;99.90
44900;DHT22;30628;51.188;6.770;2023-09-08T13:35:04;27.90;99.90
44900;DHT22;30628;51.188;6.770;2023-09-08T13:37:30;28.00;99.90
44900;DHT22;30628;51.188;6.770;2023-09-08T13:39:56;28.00;99.90
44900;DHT22;30628;51.188;6.770;2023-09-08T13:42:22;28.00;99.90
44900;DHT22;30628;51.188;6.770;2023-09-08T13:44:48;28.00;99.90
44900;DHT22;30628;51.188;6.770;2023-09-08T13:47:14;28.00;99.90
44900;DHT22;30628;51.188;6.770;2023-09-08T13:49:39;28.00;99.90
44900;DHT22;30628;51.188;6.770;2023-09-08T13:52:05;28.00;99.90
44900;DHT22;30628;51.188;6.770;2023-09-08T13:54:32;28.10;99.90
44900;DHT22;30628;51.188;6.770;2023-09-08T13:57:01;28.20;99.90
44900;DHT22;30628;51.188;6.770;2023-09-08T13:59:27;28.20;99.90
44900;DHT22;30628;51.188;6.770;2023-09-08T14:01:54;28.20;99.90
44900;DHT22;30628;51.188;6.770;2023-09-08T14:04:20;28.10;99.90
44900;DHT22;30628;51.188;6.770;2023-09-08T14:06:45;28.10;99.90
44900;DHT22;30628;51.188;6.770;2023-09-08T14:09:11;28.10;99.90
44900;DHT22;30628;51.188;6.770;2023-09-08T14:11:37;28.20;99.90
44900;DHT22;30628;51.188;6.770;2023-09-08T14:14:02;28.20;99.90
44900;DHT22;30628;51.188;6.770;2023-09-08T14:16:29;28.20;99.90
44900;DHT22;30628;51.188;6.770;2023-09-08T14:18:54;28.20;99.90
44900;DHT22;30628;51.188;6.770;2023-09-08T14:21:20;28.20;99.90
44900;DHT22;30628;51.188;6.770;2023-09-08T14:23:46;28.30;99.90
44900;DHT22;30628;51.188;6.770;2023-09-08T14:26:12;28.30;99.90
44900;DHT22;30628;51.188;6.770;2023-09-08T14:28:39;28.30;99.90
44900;DHT22;30628;51.188;6.770;2023-09-08T14:31:04;28.30;99.90
44900;DHT22;30628;51.188;6.770;2023-09-08T14:33:30;28.40;99.90
44900;DHT22;30628;51.188;6.770;2023-09-08T14:35:56;28.40;99.90
44900;DHT22;30628;51.188;6.770;2023-09-08T14:38:22;28.40;99.90
44900;DHT22;30628;51.188;6.770;2023-09-08T14:41:00;28.40;99.90
44900;DHT22;30628;51.188;6.770;2023-09-08T14:43:26;28.40;99.90
44900;DHT22;30628;51.188;6.770;2023-09-08T14:45:52;28.30;99.90
44900;DHT22;30628;51.188;6.770;2023-09-08T14:48:28;28.40;99.90
44900;DHT22;30628;51.188;6.770;2023-09-08T14:50:55;28.40;99.90
44900;DHT22;30628;51.188;6.770;2023-09-08T14:53:20;28.40;99.90
44900;DHT22;30628;51.188;6.770;2023-09-08T14:55:46;28.50;99.90
44900;DHT22;30628;51.188;6.770;2023-09-08T14:58:16;28.50;99.90
44900;DHT22;30628;51.188;6.770;2023-09-08T15:00:44;28.40;99.90
44900;DHT22;30628;51.188;6.770;2023-09-08T15:03:09;28.40;99.90
44900;DHT22;30628;51.188;6.770;2023-09-08T15:05:35;28.50;99.90
44900;DHT22;30628;51.188;6.770;2023-09-08T15:08:01;28.50;99.90
44900;DHT22;30628;51.188;6.770;2023-09-08T15:10:27;28.50;99.90
44900;DHT22;30628;51.188;6.770;2023-09-08T15:12:53;28.50;99.90
44900;DHT22;30628;51.188;6.770;2023-09-08T15:15:19;28.60;99.90
44900;DHT22;30628;51.188;6.770;2023-09-08T15:17:51;28.60;99.90
44900;DHT22;30628;51.188;6.770;2023-09-08T15:20:16;28.60;99.90
44900;DHT22;30628;51.188;6.770;2023-09-08T15:22:42;28.60;99.90
44900;DHT22;30628;51.188;6.770;2023-09-08T15:25:08;28.60;99.90
44900;DHT22;30628;51.188;6.770;2023-09-08T15:27:33;28.70;99.90
44900;DHT22;30628;51.188;6.770;2023-09-08T15:29:59;28.60;99.90
44900;DHT22;30628;51.188;6.770;2023-09-08T15:32:25;28.70;99.90
44900;DHT22;30628;51.188;6.770;2023-09-08T15:34:51;28.80;99.90
44900;DHT22;30628;51.188;6.770;2023-09-08T15:37:17;28.80;99.90
44900;DHT22;30628;51.188;6.770;2023-09-08T15:39:43;28.80;99.90